Time;durP1;ratioP1;P1;durP2;ratioP2;P2;SDS_P1;SDS_P2;PMS_P1;PMS_P2;Temp;Humidity;BMP_temperature;BMP_pressure;BME280_temperature;BME280_humidity;BME280_pressure;Samples;Min_cycle;Max_cycle;Signal;HPM_P1;HPM_P2
2021/01/05 00:01:30;;;;;;;21.25;12.55;;;;;;;;;;6269261;22;20759;-77
2021/01/05 00:03:56;;;;;;;24.58;12.93;;;;;;;;;;6269659;22;20003;-78
2021/01/05 00:06:22;;;;;;;22.38;13.10;;;;;;;;;;6268133;22;20019;-78
2021/01/05 00:08:48;;;;;;;23.30;13.07;;;;;;;;;;6269617;22;20004;-77
2021/01/05 00:11:14;;;;;;;20.88;11.52;;;;;;;;;;6241963;22;20433;-78
2021/01/05 00:13:40;;;;;;;24.10;13.13;;;;;;;;;;6242860;22;20425;-77
2021/01/05 00:16:06;;;;;;;22.45;12.73;;;;;;;;;;6241863;22;20079;-77
2021/01/05 00:18:32;;;;;;;25.10;13.30;;;;;;;;;;6269671;22;20311;-78
2021/01/05 00:20:58;;;;;;;23.65;13.38;;;;;;;;;;6242675;22;20066;-77
2021/01/05 00:23:24;;;;;;;23.17;13.13;;;;;;;;;;6269503;22;20003;-78
2021/01/05 00:25:50;;;;;;;23.02;13.48;;;;;;;;;;6268988;22;20038;-77
2021/01/05 00:28:16;;;;;;;21.13;12.45;;;;;;;;;;6269754;22;20004;-78
2021/01/05 00:30:42;;;;;;;21.98;13.05;;;;;;;;;;6269376;22;20483;-78
2021/01/05 00:33:08;;;;;;;24.15;13.20;;;;;;;;;;6269650;22;19996;-78
2021/01/05 00:35:35;;;;;;;24.13;12.80;;;;;;;;;;6268670;22;20071;-78
2021/01/05 00:38:04;;;;;;;22.05;12.38;;;;;;;;;;6269586;22;20677;-78
2021/01/05 00:40:30;;;;;;;22.10;13.00;;;;;;;;;;6268715;22;20007;-77
2021/01/05 00:42:56;;;;;;;24.05;12.95;;;;;;;;;;6242727;22;20010;-77
2021/01/05 00:45:23;;;;;;;23.42;14.00;;;;;;;;;;6268418;22;20675;-78
2021/01/05 00:47:49;;;;;;;22.38;13.18;;;;;;;;;;6241516;22;20007;-78
2021/01/05 00:50:16;;;;;;;21.85;12.65;;;;;;;;;;6241652;22;20121;-77
2021/01/05 00:52:42;;;;;;;21.40;12.75;;;;;;;;;;6269023;22;20031;-78
2021/01/05 00:55:08;;;;;;;23.85;12.82;;;;;;;;;;6241292;22;20035;-77
2021/01/05 00:57:34;;;;;;;20.65;12.40;;;;;;;;;;6269168;22;20006;-78
2021/01/05 01:00:00;;;;;;;20.48;11.95;;;;;;;;;;6268971;22;20014;-78
2021/01/05 01:02:26;;;;;;;20.73;12.27;;;;;;;;;;6268956;22;20000;-78
2021/01/05 01:04:52;;;;;;;21.38;12.75;;;;;;;;;;6239082;22;20030;-79
2021/01/05 01:07:18;;;;;;;21.38;12.73;;;;;;;;;;6267480;22;20004;-79
2021/01/05 01:09:44;;;;;;;20.67;12.45;;;;;;;;;;6268947;22;20397;-78
2021/01/05 01:12:13;;;;;;;20.85;12.10;;;;;;;;;;6269613;22;20000;-77
2021/01/05 01:14:41;;;;;;;24.20;13.57;;;;;;;;;;6268589;22;20004;-79
2021/01/05 01:17:07;;;;;;;;;;;;;;;;;;6270187;22;20004;-78
2021/01/05 01:19:33;;;;;;;22.38;11.90;;;;;;;;;;6269799;22;19945;-78
2021/01/05 01:21:59;;;;;;;19.00;11.43;;;;;;;;;;6268850;22;20369;-79
2021/01/05 01:24:25;;;;;;;19.50;10.85;;;;;;;;;;6268511;22;20000;-79
2021/01/05 01:26:52;;;;;;;19.55;11.70;;;;;;;;;;6269294;22;20065;-79
2021/01/05 01:29:19;;;;;;;19.42;10.98;;;;;;;;;;6242305;22;20463;-78
2021/01/05 01:31:45;;;;;;;19.00;11.15;;;;;;;;;;6268541;22;20000;-76
2021/01/05 01:34:12;;;;;;;19.77;11.25;;;;;;;;;;6268456;22;20062;-78
2021/01/05 01:36:38;;;;;;;20.80;11.53;;;;;;;;;;6269031;22;20008;-79
2021/01/05 01:39:05;;;;;;;18.23;10.52;;;;;;;;;;6269088;22;20038;-79
2021/01/05 01:41:31;;;;;;;18.02;10.88;;;;;;;;;;6241603;22;20048;-79
2021/01/05 01:43:57;;;;;;;17.65;10.55;;;;;;;;;;6268971;22;20000;-79
2021/01/05 01:46:23;;;;;;;18.02;10.73;;;;;;;;;;6240989;22;20015;-78
2021/01/05 01:48:50;;;;;;;16.30;10.40;;;;;;;;;;6242205;22;20007;-79
2021/01/05 01:51:16;;;;;;;16.05;10.20;;;;;;;;;;6241578;22;20011;-78
2021/01/05 01:53:55;;;;;;;18.73;10.38;;;;;;;;;;6268587;22;20004;-79
2021/01/05 01:56:47;;;;;;;18.30;11.05;;;;;;;;;;6268406;22;20038;-79
2021/01/05 01:59:19;;;;;;;15.85;9.10;;;;;;;;;;6241576;22;20011;-78
2021/01/05 02:01:55;;;;;;;17.77;9.77;;;;;;;;;;6241226;22;20404;-79
2021/01/05 02:04:40;;;;;;;15.23;9.23;;;;;;;;;;6240948;22;20004;-78
2021/01/05 02:07:06;;;;;;;15.75;9.60;;;;;;;;;;6241651;22;20011;-80
2021/01/05 02:09:41;;;;;;;15.68;9.20;;;;;;;;;;6241888;22;20011;-78
2021/01/05 02:12:13;;;;;;;13.35;8.30;;;;;;;;;;6269066;22;20049;-78
2021/01/05 02:14:51;;;;;;;13.95;8.82;;;;;;;;;;6267805;22;20641;-77
2021/01/05 02:17:35;;;;;;;17.40;9.23;;;;;;;;;;6242214;22;20053;-78
2021/01/05 02:20:28;;;;;;;16.13;8.75;;;;;;;;;;6240764;22;20014;-80
2021/01/05 02:22:57;;;;;;;14.57;8.82;;;;;;;;;;6260953;22;20007;-78
2021/01/05 02:25:36;;;;;;;14.13;8.43;;;;;;;;;;6233766;22;20016;-80
2021/01/05 02:28:04;;;;;;;14.70;8.82;;;;;;;;;;6268781;22;20038;-80
2021/01/05 02:30:37;;;;;;;15.88;8.77;;;;;;;;;;6268558;22;20525;-79
2021/01/05 02:33:03;;;;;;;13.95;9.13;;;;;;;;;;6241046;22;19999;-80
2021/01/05 02:35:29;;;;;;;13.25;8.27;;;;;;;;;;6240796;22;20098;-80
2021/01/05 02:38:07;;;;;;;16.20;9.07;;;;;;;;;;6241363;22;20348;-80
2021/01/05 02:40:42;;;;;;;13.45;7.72;;;;;;;;;;6241385;22;20033;-80
2021/01/05 02:43:27;;;;;;;14.45;8.80;;;;;;;;;;6269857;22;20072;-80
2021/01/05 02:45:53;;;;;;;15.68;8.45;;;;;;;;;;6242107;22;20090;-80
2021/01/05 02:48:25;;;;;;;17.30;8.93;;;;;;;;;;6270426;22;20453;-80
2021/01/05 02:51:10;;;;;;;15.63;8.48;;;;;;;;;;6270402;22;20042;-80
2021/01/05 02:53:54;;;;;;;14.77;8.40;;;;;;;;;;6270046;22;19996;-80
2021/01/05 02:56:43;;;;;;;13.82;8.38;;;;;;;;;;6242810;22;20008;-79
2021/01/05 02:59:28;;;;;;;13.85;8.20;;;;;;;;;;6242854;22;20031;-80
2021/01/05 03:02:13;;;;;;;14.15;8.40;;;;;;;;;;6272498;22;20029;-80
2021/01/05 03:04:39;;;;;;;14.13;8.50;;;;;;;;;;6272888;22;20038;-80
2021/01/05 03:07:16;;;;;;;13.55;8.60;;;;;;;;;;6246424;22;20011;-80
2021/01/05 03:09:58;;;;;;;12.68;8.00;;;;;;;;;;6273620;22;19999;-80
2021/01/05 03:12:26;;;;;;;15.73;9.10;;;;;;;;;;6273636;22;20079;-80
2021/01/05 03:14:58;;;;;;;15.15;9.18;;;;;;;;;;6272522;22;20313;-79
2021/01/05 03:17:33;;;;;;;15.82;9.32;;;;;;;;;;6273344;22;20003;-80
2021/01/05 03:20:26;;;;;;;16.23;9.23;;;;;;;;;;6246941;22;20011;-80
2021/01/05 03:22:54;;;;;;;15.00;9.15;;;;;;;;;;6266432;22;20008;-80
2021/01/05 03:25:21;;;;;;;14.68;9.05;;;;;;;;;;6245662;22;20003;-79
2021/01/05 03:27:48;;;;;;;16.03;9.27;;;;;;;;;;6246327;22;20086;-80
2021/01/05 03:30:20;;;;;;;15.18;9.25;;;;;;;;;;6245536;22;20003;-81
2021/01/05 03:32:46;;;;;;;17.67;9.18;;;;;;;;;;6274120;22;20075;-80
2021/01/05 03:35:12;;;;;;;15.07;9.27;;;;;;;;;;6273115;22;19995;-80
2021/01/05 03:37:38;;;;;;;15.77;9.77;;;;;;;;;;6273115;22;20376;-80
2021/01/05 03:40:09;;;;;;;18.70;10.23;;;;;;;;;;6246845;22;20008;-80
2021/01/05 03:42:35;;;;;;;17.60;9.68;;;;;;;;;;6246933;22;20012;-80
2021/01/05 03:45:01;;;;;;;17.58;9.93;;;;;;;;;;6245727;22;20010;-78
2021/01/05 03:47:27;;;;;;;17.65;10.10;;;;;;;;;;6274007;22;19996;-78
2021/01/05 03:49:53;;;;;;;17.15;10.55;;;;;;;;;;6246576;22;20038;-80
2021/01/05 03:52:19;;;;;;;17.90;10.30;;;;;;;;;;6273376;22;20000;-78
2021/01/05 03:54:45;;;;;;;16.30;10.10;;;;;;;;;;6245507;22;20000;-80
2021/01/05 03:57:11;;;;;;;18.52;10.88;;;;;;;;;;6273759;22;19996;-77
2021/01/05 03:59:37;;;;;;;16.27;10.57;;;;;;;;;;6273268;22;20049;-77
2021/01/05 04:02:03;;;;;;;17.42;10.45;;;;;;;;;;6272262;22;19996;-78
2021/01/05 04:04:29;;;;;;;17.88;10.52;;;;;;;;;;6270279;22;20090;-76
2021/01/05 04:06:55;;;;;;;18.20;10.35;;;;;;;;;;6270683;22;20363;-77
2021/01/05 04:09:21;;;;;;;17.50;9.95;;;;;;;;;;6271032;22;19996;-78
2021/01/05 04:11:47;;;;;;;16.80;10.30;;;;;;;;;;6269369;22;20000;-77
2021/01/05 04:14:13;;;;;;;17.13;9.57;;;;;;;;;;6269498;22;20597;-78
2021/01/05 04:16:39;;;;;;;19.25;10.68;;;;;;;;;;6270080;22;19996;-78
2021/01/05 04:19:05;;;;;;;18.25;10.77;;;;;;;;;;6243322;22;20008;-78
2021/01/05 04:21:31;;;;;;;20.00;10.63;;;;;;;;;;6242541;22;20567;-78
2021/01/05 04:23:57;;;;;;;18.80;10.45;;;;;;;;;;6241974;22;20007;-77
2021/01/05 04:26:23;;;;;;;21.15;11.35;;;;;;;;;;6269404;22;20455;-78
2021/01/05 04:28:49;;;;;;;19.45;11.77;;;;;;;;;;6269699;22;19996;-78
2021/01/05 04:31:15;;;;;;;18.80;11.55;;;;;;;;;;6242372;22;20004;-78
2021/01/05 04:33:41;;;;;;;21.75;11.75;;;;;;;;;;6242937;22;20010;-77
2021/01/05 04:36:07;;;;;;;22.45;12.48;;;;;;;;;;6269097;22;20000;-79
2021/01/05 04:38:33;;;;;;;22.20;12.93;;;;;;;;;;6242903;22;20037;-79
2021/01/05 04:41:00;;;;;;;23.00;13.05;;;;;;;;;;6242527;22;20010;-79
2021/01/05 04:43:47;;;;;;;23.98;13.85;;;;;;;;;;6242528;22;20006;-77
2021/01/05 04:46:16;;;;;;;22.75;13.10;;;;;;;;;;6241607;22;20003;-78
2021/01/05 04:49:01;;;;;;;24.60;13.82;;;;;;;;;;6270034;22;20490;-80
2021/01/05 04:51:29;;;;;;;27.55;14.30;;;;;;;;;;6242273;22;20007;-77
2021/01/05 04:54:02;;;;;;;26.60;15.50;;;;;;;;;;6242631;22;20097;-78
2021/01/05 04:56:36;;;;;;;26.63;15.10;;;;;;;;;;6269365;22;20452;-78
2021/01/05 04:59:03;;;;;;;27.48;14.68;;;;;;;;;;6269479;22;20004;-78
2021/01/05 05:01:32;;;;;;;28.13;15.48;;;;;;;;;;6268989;22;20006;-77
2021/01/05 05:04:10;;;;;;;27.35;15.88;;;;;;;;;;6242176;22;20007;-78
2021/01/05 05:06:45;;;;;;;30.05;16.45;;;;;;;;;;6242020;22;20039;-78
2021/01/05 05:09:13;;;;;;;26.65;15.50;;;;;;;;;;6242564;22;20007;-80
2021/01/05 05:11:45;;;;;;;29.83;16.08;;;;;;;;;;6242405;22;20795;-78
2021/01/05 05:14:18;;;;;;;29.08;15.95;;;;;;;;;;6268748;22;20543;-78
2021/01/05 05:16:45;;;;;;;30.85;17.83;;;;;;;;;;6270288;22;20027;-78
2021/01/05 05:19:11;;;;;;;30.70;16.10;;;;;;;;;;6242783;22;20035;-78
2021/01/05 05:21:56;;;;;;;31.30;17.80;;;;;;;;;;6242004;22;20289;-78
2021/01/05 05:24:22;;;;;;;32.25;17.75;;;;;;;;;;6241703;22;20146;-79
2021/01/05 05:26:51;;;;;;;33.95;19.42;;;;;;;;;;6270556;22;20619;-78
2021/01/05 05:29:22;;;;;;;35.47;19.17;;;;;;;;;;6269622;22;20011;-78
2021/01/05 05:31:49;;;;;;;40.38;19.95;;;;;;;;;;6242735;22;20091;-78
2021/01/05 05:34:29;;;;;;;38.53;20.33;;;;;;;;;;6269330;22;20000;-78
2021/01/05 05:36:55;;;;;;;33.72;18.92;;;;;;;;;;6243129;22;20424;-78
2021/01/05 05:39:21;;;;;;;41.15;20.17;;;;;;;;;;6243111;22;20119;-78
2021/01/05 05:41:50;;;;;;;38.42;20.83;;;;;;;;;;6269425;22;20486;-78
2021/01/05 05:44:32;;;;;;;37.50;20.50;;;;;;;;;;6241856;22;20004;-78
2021/01/05 05:47:05;;;;;;;41.40;21.92;;;;;;;;;;6242826;22;20465;-78
2021/01/05 05:49:49;;;;;;;40.35;21.30;;;;;;;;;;6269628;22;20004;-78
2021/01/05 05:52:37;;;;;;;38.38;20.92;;;;;;;;;;6242439;22;20011;-79
2021/01/05 05:55:06;;;;;;;38.53;20.63;;;;;;;;;;6269435;22;20000;-79
2021/01/05 05:57:39;;;;;;;34.42;19.25;;;;;;;;;;6242250;22;20003;-79
2021/01/05 06:00:28;;;;;;;36.00;18.35;;;;;;;;;;6242373;22;20008;-79
2021/01/05 06:02:54;;;;;;;32.13;17.45;;;;;;;;;;6250248;22;20015;-78
2021/01/05 06:05:24;;;;;;;29.77;17.13;;;;;;;;;;6242115;22;20011;-78
2021/01/05 06:07:50;;;;;;;31.85;18.17;;;;;;;;;;6269894;22;20078;-79
2021/01/05 06:10:16;;;;;;;34.33;19.17;;;;;;;;;;6242997;22;20026;-79
2021/01/05 06:12:42;;;;;;;35.83;19.13;;;;;;;;;;6242821;22;20429;-79
2021/01/05 06:15:08;;;;;;;38.13;19.25;;;;;;;;;;6242645;22;20003;-78
2021/01/05 06:17:34;;;;;;;36.00;20.17;;;;;;;;;;6244277;22;20039;-79
2021/01/05 06:20:00;;;;;;;36.03;19.45;;;;;;;;;;6272657;22;20003;-79
2021/01/05 06:22:26;;;;;;;35.60;19.33;;;;;;;;;;6245146;22;20462;-79
2021/01/05 06:24:52;;;;;;;36.63;19.15;;;;;;;;;;6271633;22;20000;-79
2021/01/05 06:27:18;;;;;;;34.42;19.83;;;;;;;;;;6245195;22;20102;-79
2021/01/05 06:29:44;;;;;;;36.20;19.42;;;;;;;;;;6244339;22;20030;-79
2021/01/05 06:32:10;;;;;;;41.13;21.23;;;;;;;;;;6244912;22;20432;-79
2021/01/05 06:34:36;;;;;;;42.03;22.25;;;;;;;;;;6271050;22;20023;-78
2021/01/05 06:37:02;;;;;;;45.17;26.13;;;;;;;;;;6271697;22;20065;-78
2021/01/05 06:39:28;;;;;;;40.08;21.38;;;;;;;;;;6272053;22;20006;-78
2021/01/05 06:41:54;;;;;;;40.13;20.92;;;;;;;;;;6271754;22;20010;-78
2021/01/05 06:44:20;;;;;;;41.47;21.85;;;;;;;;;;6244444;22;20357;-78
2021/01/05 06:46:55;;;;;;;44.80;23.30;;;;;;;;;;6245699;22;20084;-78
2021/01/05 06:49:23;;;;;;;50.22;26.05;;;;;;;;;;6245222;22;20268;-78
2021/01/05 06:51:49;;;;;;;48.42;24.10;;;;;;;;;;6272336;22;20333;-78
2021/01/05 06:54:15;;;;;;;50.15;26.20;;;;;;;;;;6271451;22;19996;-78
2021/01/05 06:56:51;;;;;;;49.15;25.70;;;;;;;;;;6271167;22;19996;-78
2021/01/05 06:59:17;;;;;;;51.53;26.70;;;;;;;;;;6270238;22;20341;-78
2021/01/05 07:01:48;;;;;;;50.60;26.95;;;;;;;;;;6243989;22;20000;-77
2021/01/05 07:04:14;;;;;;;58.38;31.40;;;;;;;;;;6276044;22;20030;-77
2021/01/05 07:06:40;;;;;;;56.25;29.40;;;;;;;;;;6249068;22;20008;-78
2021/01/05 07:09:06;;;;;;;54.45;26.80;;;;;;;;;;6275991;22;20003;-77
2021/01/05 07:11:32;;;;;;;53.58;26.60;;;;;;;;;;6274837;22;20037;-77
2021/01/05 07:13:58;;;;;;;52.20;26.80;;;;;;;;;;6274639;22;19995;-77
2021/01/05 07:16:24;;;;;;;51.78;25.73;;;;;;;;;;6247503;22;20031;-77
2021/01/05 07:18:50;;;;;;;50.80;26.20;;;;;;;;;;6248123;22;20605;-78
2021/01/05 07:21:16;;;;;;;50.47;27.15;;;;;;;;;;6274429;22;20000;-77
2021/01/05 07:23:42;;;;;;;58.83;29.23;;;;;;;;;;6247084;22;20008;-77
2021/01/05 07:26:08;;;;;;;56.15;29.02;;;;;;;;;;6273578;22;20000;-77
2021/01/05 07:28:34;;;;;;;67.53;31.77;;;;;;;;;;6273444;22;20436;-77
2021/01/05 07:31:00;;;;;;;64.10;31.75;;;;;;;;;;6246963;22;20007;-78
2021/01/05 07:33:26;;;;;;;62.90;30.63;;;;;;;;;;6246320;22;19995;-77
2021/01/05 07:35:52;;;;;;;76.82;38.92;;;;;;;;;;6244223;22;20007;-77
2021/01/05 07:38:18;;;;;;;65.32;31.52;;;;;;;;;;6272907;22;20000;-77
2021/01/05 07:40:44;;;;;;;62.63;30.58;;;;;;;;;;6244658;22;20015;-77
2021/01/05 07:43:10;;;;;;;62.38;32.15;;;;;;;;;;6272439;22;20007;-77
2021/01/05 07:45:36;;;;;;;63.17;30.48;;;;;;;;;;6266544;22;20000;-77
2021/01/05 07:48:02;;;;;;;63.13;31.85;;;;;;;;;;6264892;22;20739;-78
2021/01/05 07:50:28;;;;;;;63.92;29.65;;;;;;;;;;6268246;22;19996;-78
2021/01/05 07:52:55;;;;;;;69.53;31.42;;;;;;;;;;6269827;22;20022;-78
2021/01/05 07:55:25;;;;;;;60.00;30.13;;;;;;;;;;6268400;22;20086;-78
2021/01/05 07:57:52;;;;;;;62.45;30.52;;;;;;;;;;6242052;22;20345;-78
2021/01/05 08:00:19;;;;;;;59.60;29.02;;;;;;;;;;6241759;22;20116;-78
2021/01/05 08:02:45;;;;;;;60.10;27.83;;;;;;;;;;6241662;22;20083;-78
2021/01/05 08:05:12;;;;;;;62.28;29.55;;;;;;;;;;6268575;22;20111;-78
2021/01/05 08:07:38;;;;;;;58.30;28.92;;;;;;;;;;6270466;22;20039;-78
2021/01/05 08:10:05;;;;;;;58.05;28.60;;;;;;;;;;6269396;22;20062;-78
2021/01/05 08:12:31;;;;;;;54.38;29.10;;;;;;;;;;6242877;22;20004;-78
2021/01/05 08:14:57;;;;;;;59.38;29.73;;;;;;;;;;6268804;22;20371;-78
2021/01/05 08:17:24;;;;;;;60.85;28.98;;;;;;;;;;6269431;22;19995;-77
2021/01/05 08:19:50;;;;;;;59.90;31.02;;;;;;;;;;6269301;22;20075;-79
2021/01/05 08:22:16;;;;;;;61.55;31.67;;;;;;;;;;6242486;22;20004;-78
2021/01/05 08:24:42;;;;;;;60.42;29.70;;;;;;;;;;6268814;22;19996;-78
2021/01/05 08:27:12;;;;;;;61.95;30.35;;;;;;;;;;6242049;22;20003;-78
2021/01/05 08:29:39;;;;;;;58.25;28.80;;;;;;;;;;6242558;22;20337;-78
2021/01/05 08:32:05;;;;;;;62.25;29.52;;;;;;;;;;6242075;22;20007;-78
2021/01/05 08:34:31;;;;;;;59.35;29.80;;;;;;;;;;6268495;22;19999;-78
2021/01/05 08:37:00;;;;;;;56.35;27.98;;;;;;;;;;6269523;22;20011;-78
2021/01/05 08:39:27;;;;;;;55.20;27.50;;;;;;;;;;6242034;22;20498;-78
2021/01/05 08:41:54;;;;;;;54.25;27.70;;;;;;;;;;6242352;22;20027;-78
2021/01/05 08:44:21;;;;;;;54.63;26.80;;;;;;;;;;6241709;22;20018;-78
2021/01/05 08:46:47;;;;;;;53.20;26.90;;;;;;;;;;6242402;22;20054;-79
2021/01/05 08:49:13;;;;;;;47.78;22.65;;;;;;;;;;6242141;22;20027;-78
2021/01/05 08:51:39;;;;;;;53.40;26.65;;;;;;;;;;6242409;22;20337;-78
2021/01/05 08:54:05;;;;;;;48.10;23.83;;;;;;;;;;6269049;22;20000;-76
2021/01/05 08:56:31;;;;;;;48.03;25.13;;;;;;;;;;6269372;22;20018;-78
2021/01/05 08:58:57;;;;;;;46.22;24.33;;;;;;;;;;6269309;22;20004;-77
2021/01/05 09:01:24;;;;;;;46.05;24.13;;;;;;;;;;6241942;22;20053;-78
2021/01/05 09:03:50;;;;;;;46.60;24.10;;;;;;;;;;6241432;22;19999;-78
2021/01/05 09:06:20;;;;;;;45.72;24.20;;;;;;;;;;6240983;22;20019;-78
2021/01/05 09:08:47;;;;;;;46.45;23.63;;;;;;;;;;6269160;22;20278;-78
2021/01/05 09:11:39;;;;;;;43.50;22.52;;;;;;;;;;6268674;22;20337;-79
2021/01/05 09:14:05;;;;;;;40.05;21.75;;;;;;;;;;6235027;22;20003;-79
2021/01/05 09:16:32;;;;;;;38.63;21.08;;;;;;;;;;6241786;22;20014;-79
2021/01/05 09:18:58;;;;;;;41.78;21.80;;;;;;;;;;6269163;22;20004;-77
2021/01/05 09:21:26;;;;;;;38.10;19.67;;;;;;;;;;6269237;22;20057;-77
2021/01/05 09:23:58;;;;;;;39.40;20.58;;;;;;;;;;6269266;22;20026;-77
2021/01/05 09:26:29;;;;;;;40.17;20.90;;;;;;;;;;6268965;22;20436;-76
2021/01/05 09:28:55;;;;;;;41.03;22.65;;;;;;;;;;6265253;22;20034;-76
2021/01/05 09:31:21;;;;;;;34.70;20.33;;;;;;;;;;6268922;22;20004;-77
2021/01/05 09:33:47;;;;;;;39.13;21.38;;;;;;;;;;6242061;22;20346;-76
2021/01/05 09:36:14;;;;;;;40.15;21.30;;;;;;;;;;6268027;22;19996;-76
2021/01/05 09:38:40;;;;;;;53.17;27.35;;;;;;;;;;6241347;22;20440;-77
2021/01/05 09:41:07;;;;;;;36.70;21.27;;;;;;;;;;6241546;22;20421;-76
2021/01/05 09:43:33;;;;;;;40.20;21.40;;;;;;;;;;6269265;22;20432;-76
2021/01/05 09:45:59;;;;;;;42.75;22.58;;;;;;;;;;6240791;22;20007;-77
2021/01/05 09:48:25;;;;;;;58.25;30.65;;;;;;;;;;6240899;22;20014;-78
2021/01/05 09:50:51;;;;;;;42.67;22.60;;;;;;;;;;6268100;22;20007;-77
2021/01/05 09:53:17;;;;;;;43.47;22.33;;;;;;;;;;6268696;22;19996;-77
2021/01/05 09:55:43;;;;;;;44.72;23.00;;;;;;;;;;6267948;22;20028;-78
2021/01/05 09:58:09;;;;;;;47.80;24.20;;;;;;;;;;6242076;22;20086;-77
2021/01/05 10:00:35;;;;;;;45.67;24.20;;;;;;;;;;6241554;22;20011;-77
2021/01/05 10:03:01;;;;;;;48.30;25.83;;;;;;;;;;6241019;22;20031;-79
2021/01/05 10:05:27;;;;;;;56.03;27.83;;;;;;;;;;6267826;22;20716;-77
2021/01/05 10:07:56;;;;;;;57.95;29.40;;;;;;;;;;6269815;22;20000;-78
2021/01/05 10:10:23;;;;;;;59.47;30.38;;;;;;;;;;6242062;22;20007;-78
2021/01/05 10:12:50;;;;;;;61.88;29.98;;;;;;;;;;6242135;22;20003;-78
2021/01/05 10:15:17;;;;;;;54.35;28.70;;;;;;;;;;6241312;22;20007;-80
2021/01/05 10:17:43;;;;;;;59.35;29.38;;;;;;;;;;6268818;22;20000;-77
2021/01/05 10:20:09;;;;;;;48.42;24.92;;;;;;;;;;6269581;22;20015;-80
2021/01/05 10:22:35;;;;;;;50.70;26.10;;;;;;;;;;6270418;22;20000;-78
2021/01/05 10:25:02;;;;;;;48.35;24.98;;;;;;;;;;6268462;22;20004;-80
2021/01/05 10:27:28;;;;;;;45.35;24.73;;;;;;;;;;6242837;22;20082;-79
2021/01/05 10:29:55;;;;;;;46.75;23.88;;;;;;;;;;6242109;22;20000;-78
2021/01/05 10:32:21;;;;;;;45.50;23.38;;;;;;;;;;6269438;22;20648;-79
2021/01/05 10:34:47;;;;;;;46.05;24.92;;;;;;;;;;6240813;22;20053;-79
2021/01/05 10:37:13;;;;;;;49.50;25.42;;;;;;;;;;6242364;22;20004;-78
2021/01/05 10:39:39;;;;;;;43.47;23.73;;;;;;;;;;6267738;22;20058;-79
2021/01/05 10:42:06;;;;;;;41.35;22.88;;;;;;;;;;6241584;22;20317;-78
2021/01/05 10:44:32;;;;;;;43.72;23.48;;;;;;;;;;6267351;22;20007;-78
2021/01/05 10:47:02;;;;;;;44.88;23.85;;;;;;;;;;6267697;22;20039;-77
2021/01/05 10:49:28;;;;;;;45.92;24.30;;;;;;;;;;6241851;22;20014;-78
2021/01/05 10:51:56;;;;;;;41.85;23.23;;;;;;;;;;6268858;22;20511;-77
2021/01/05 10:54:23;;;;;;;45.10;23.52;;;;;;;;;;6240814;22;20004;-79
2021/01/05 10:56:59;;;;;;;40.92;22.38;;;;;;;;;;6267996;22;20455;-79
2021/01/05 10:59:26;;;;;;;43.17;23.23;;;;;;;;;;6268819;22;20008;-79
2021/01/05 11:01:52;;;;;;;49.33;27.05;;;;;;;;;;6268573;22;20455;-77
2021/01/05 11:04:18;;;;;;;47.92;24.98;;;;;;;;;;6269438;22;20020;-79
2021/01/05 11:06:51;;;;;;;43.05;23.92;;;;;;;;;;6243826;22;20008;-77
2021/01/05 11:09:18;;;;;;;45.03;24.60;;;;;;;;;;6243514;22;20409;-77
2021/01/05 11:11:44;;;;;;;45.25;23.70;;;;;;;;;;6243417;22;20063;-79
2021/01/05 11:14:10;;;;;;;41.50;22.52;;;;;;;;;;6243508;22;20588;-78
2021/01/05 11:16:35;;;;;;;39.30;21.52;;;;;;;;;;6243675;22;20018;-79
2021/01/05 11:19:01;;;;;;;39.75;21.75;;;;;;;;;;6243709;22;20433;-80
2021/01/05 11:21:27;;;;;;;41.47;24.30;;;;;;;;;;6270944;22;20007;-78
2021/01/05 11:23:53;;;;;;;36.13;21.70;;;;;;;;;;6244237;22;20004;-79
2021/01/05 11:26:19;;;;;;;37.20;22.92;;;;;;;;;;6243211;22;20095;-79
2021/01/05 11:28:45;;;;;;;38.70;22.65;;;;;;;;;;6242689;22;20000;-78
2021/01/05 11:31:12;;;;;;;38.42;22.52;;;;;;;;;;6243557;22;20668;-78
2021/01/05 11:33:38;;;;;;;120.20;53.60;;;;;;;;;;6244677;22;20030;-79
2021/01/05 11:36:04;;;;;;;41.25;21.40;;;;;;;;;;6242430;22;20008;-77
2021/01/05 11:38:30;;;;;;;36.97;20.77;;;;;;;;;;6242826;22;20023;-78
2021/01/05 11:40:56;;;;;;;34.25;19.50;;;;;;;;;;6242914;22;20054;-79
2021/01/05 11:43:22;;;;;;;31.17;17.95;;;;;;;;;;6243079;22;20016;-79
2021/01/05 11:45:48;;;;;;;32.65;19.15;;;;;;;;;;6242725;22;20328;-78
2021/01/05 11:48:14;;;;;;;33.22;19.48;;;;;;;;;;6243160;22;20349;-78
2021/01/05 11:50:40;;;;;;;37.42;21.45;;;;;;;;;;6243039;22;20103;-79
2021/01/05 11:53:06;;;;;;;32.38;18.20;;;;;;;;;;6243024;22;20294;-78
2021/01/05 11:55:32;;;;;;;30.25;18.58;;;;;;;;;;6241808;22;20026;-79
2021/01/05 11:57:58;;;;;;;31.25;19.48;;;;;;;;;;6243107;22;20012;-79
2021/01/05 12:00:24;;;;;;;28.42;17.23;;;;;;;;;;6243090;22;20038;-79
2021/01/05 12:02:50;;;;;;;29.15;16.77;;;;;;;;;;6242521;22;20004;-78
2021/01/05 12:05:18;;;;;;;28.42;16.60;;;;;;;;;;6269969;22;20016;-78
2021/01/05 12:07:44;;;;;;;35.55;22.05;;;;;;;;;;6271369;22;20014;-78
2021/01/05 12:10:10;;;;;;;35.63;22.30;;;;;;;;;;6243633;22;20008;-79
2021/01/05 12:12:36;;;;;;;31.67;18.40;;;;;;;;;;6244188;22;20035;-78
2021/01/05 12:15:04;;;;;;;31.95;19.20;;;;;;;;;;6241948;22;20628;-78
2021/01/05 12:17:33;;;;;;;34.58;18.75;;;;;;;;;;6270386;22;20500;-77
2021/01/05 12:19:59;;;;;;;32.35;19.92;;;;;;;;;;6242849;22;20014;-79
2021/01/05 12:22:25;;;;;;;29.75;18.15;;;;;;;;;;6242591;22;20008;-79
2021/01/05 12:24:51;;;;;;;33.25;19.27;;;;;;;;;;6239478;22;19999;-79
2021/01/05 12:27:17;;;;;;;34.88;21.10;;;;;;;;;;6236093;22;20000;-79
2021/01/05 12:29:44;;;;;;;38.83;22.95;;;;;;;;;;6242292;22;20030;-78
2021/01/05 12:32:14;;;;;;;32.93;19.67;;;;;;;;;;6242920;22;20007;-78
2021/01/05 12:34:42;;;;;;;35.00;20.25;;;;;;;;;;6242013;22;20230;-79
2021/01/05 12:37:10;;;;;;;37.10;21.05;;;;;;;;;;6269751;22;20089;-78
2021/01/05 12:39:36;;;;;;;35.35;21.20;;;;;;;;;;6242827;22;20007;-79
2021/01/05 12:42:14;;;;;;;36.30;21.65;;;;;;;;;;6241656;22;20010;-78
2021/01/05 12:44:40;;;;;;;36.28;20.65;;;;;;;;;;6268942;22;20000;-79
2021/01/05 12:47:06;;;;;;;40.15;23.75;;;;;;;;;;6242538;22;20090;-79
2021/01/05 12:49:32;;;;;;;39.35;22.88;;;;;;;;;;6270182;22;20004;-80
2021/01/05 12:52:02;;;;;;;40.88;22.85;;;;;;;;;;6242630;22;20049;-79
2021/01/05 12:54:28;;;;;;;45.45;26.63;;;;;;;;;;6242733;22;20035;-79
2021/01/05 12:56:54;;;;;;;44.45;25.20;;;;;;;;;;6243290;22;20010;-79
2021/01/05 12:59:22;;;;;;;44.60;24.75;;;;;;;;;;6242620;22;20905;-76
2021/01/05 13:01:53;;;;;;;43.58;24.73;;;;;;;;;;6269110;22;20014;-77
2021/01/05 13:04:19;;;;;;;51.42;27.98;;;;;;;;;;6268596;22;20062;-78
2021/01/05 13:06:45;;;;;;;44.45;24.98;;;;;;;;;;6269411;22;20329;-78
2021/01/05 13:09:12;;;;;;;46.55;24.85;;;;;;;;;;6268371;22;20098;-78
2021/01/05 13:11:41;;;;;;;44.95;24.20;;;;;;;;;;6267797;22;20061;-78
2021/01/05 13:14:07;;;;;;;45.78;25.30;;;;;;;;;;6268299;22;20332;-77
2021/01/05 13:16:33;;;;;;;45.08;23.73;;;;;;;;;;6269450;22;20003;-77
2021/01/05 13:19:00;;;;;;;40.80;23.35;;;;;;;;;;6241945;22;20383;-77
2021/01/05 13:21:31;;;;;;;44.85;25.27;;;;;;;;;;6241814;22;20136;-79
2021/01/05 13:23:59;;;;;;;45.55;24.10;;;;;;;;;;6241888;22;19999;-78
2021/01/05 13:26:25;;;;;;;;;;;;;;;;;;6269076;22;20402;-77
2021/01/05 13:28:51;;;;;;;43.25;22.92;;;;;;;;;;6269133;22;19939;-78
2021/01/05 13:31:17;;;;;;;49.40;25.70;;;;;;;;;;6269316;22;20066;-78
2021/01/05 13:33:43;;;;;;;46.63;24.05;;;;;;;;;;6242080;22;19999;-76
2021/01/05 13:36:09;;;;;;;44.85;23.27;;;;;;;;;;6267726;22;20094;-78
2021/01/05 13:38:35;;;;;;;41.22;22.73;;;;;;;;;;6268882;22;20133;-78
2021/01/05 13:41:01;;;;;;;43.92;23.30;;;;;;;;;;6241950;22;20014;-78
2021/01/05 13:43:27;;;;;;;49.80;23.30;;;;;;;;;;6269046;22;20006;-78
2021/01/05 13:45:53;;;;;;;43.85;23.45;;;;;;;;;;6242152;22;20027;-79
2021/01/05 13:48:19;;;;;;;39.53;21.60;;;;;;;;;;6269134;22;20344;-79
2021/01/05 13:50:47;;;;;;;44.08;22.75;;;;;;;;;;6242084;22;20020;-80
2021/01/05 13:53:13;;;;;;;;;;;;;;;;;;6270160;22;20007;-79
2021/01/05 13:55:39;;;;;;;46.33;24.40;;;;;;;;;;6268427;22;19903;-79
2021/01/05 13:58:05;;;;;;;44.53;22.15;;;;;;;;;;6242537;22;20332;-80
2021/01/05 14:00:31;;;;;;;44.00;22.77;;;;;;;;;;6243041;22;20004;-81
2021/01/05 14:02:57;;;;;;;42.25;22.83;;;;;;;;;;6245081;22;20090;-80
2021/01/05 14:05:23;;;;;;;41.20;21.73;;;;;;;;;;6270842;22;20043;-80
2021/01/05 14:07:49;;;;;;;44.58;24.35;;;;;;;;;;6243973;22;20403;-82
2021/01/05 14:10:16;;;;;;;41.55;22.25;;;;;;;;;;6244187;22;20079;-81
2021/01/05 14:12:42;;;;;;;49.15;27.50;;;;;;;;;;6271237;22;20000;-80
2021/01/05 14:15:09;;;;;;;60.22;33.28;;;;;;;;;;6244564;22;20034;-81
2021/01/05 14:17:35;;;;;;;55.00;28.10;;;;;;;;;;6244231;22;20011;-79
2021/01/05 14:20:01;;;;;;;50.10;25.10;;;;;;;;;;6243813;22;20050;-80
2021/01/05 14:22:27;;;;;;;62.67;34.55;;;;;;;;;;6272056;22;20004;-81
2021/01/05 14:24:55;;;;;;;51.15;26.23;;;;;;;;;;6245097;22;20026;-81